Time,TemperatureF,DewpointF,PressureIn,WindDirection,WindDirectionDegrees,WindSpeedMPH,WindSpeedGustMPH,Humidity,HourlyPrecipIn,Conditions,Clouds,dailyrainin,SoftwareType,DateUTC
2013-09-05 00:00:00,62.8,60.1,30.14,East,97,0.0,0.0,91,0.00,,,0.00,WUHU216DAVISVP2,2013-09-05 05:00:00,
2013-09-05 00:06:00,62.6,59.6,30.14,East,97,0.0,0.0,90,0.00,,,0.00,WUHU216DAVISVP2,2013-09-05 05:06:00,
2013-09-05 00:13:00,62.1,59.1,30.13,East,97,0.0,0.0,90,0.00,,,0.00,WUHU216DAVISVP2,2013-09-05 05:13:00,
2013-09-05 00:18:00,61.9,58.9,30.13,East,97,0.0,0.0,90,0.00,,,0.00,WUHU216DAVISVP2,2013-09-05 05:18:00,
2013-09-05 00:24:00,61.3,58.3,30.14,East,97,0.0,0.0,90,0.00,,,0.00,WUHU216DAVISVP2,2013-09-05 05:24:00,
2013-09-05 00:30:00,61.4,58.7,30.14,East,97,0.0,0.0,91,0.00,,,0.00,WUHU216DAVISVP2,2013-09-05 05:30:00,
2013-09-05 00:36:00,61.3,58.6,30.13,East,97,0.0,0.0,91,0.00,,,0.00,WUHU216DAVISVP2,2013-09-05 05:36:00,
2013-09-05 00:41:00,61.1,58.8,30.13,East,97,0.0,0.0,92,0.00,,,0.00,WUHU216DAVISVP2,2013-09-05 05:41:00,
2013-09-05 00:47:00,60.9,58.6,30.14,East,97,0.0,0.0,92,0.00,,,0.00,WUHU216DAVISVP2,2013-09-05 05:47:00,
2013-09-05 00:52:00,60.7,58.3,30.14,East,97,0.0,0.0,92,0.00,,,0.00,WUHU216DAVISVP2,2013-09-05 05:52:00,
2013-09-05 00:58:00,60.7,58.6,30.14,East,97,0.0,0.0,93,0.00,,,0.00,WUHU216DAVISVP2,2013-09-05 05:58:00,
2013-09-05 01:03:00,60.6,58.5,30.14,East,97,0.0,0.0,93,0.00,,,0.00,WUHU216DAVISVP2,2013-09-05 06:03:00,
2013-09-05 01:09:00,60.7,58.9,30.14,East,97,0.0,0.0,94,0.00,,,0.00,WUHU216DAVISVP2,2013-09-05 06:09:00,
2013-09-05 01:15:00,60.9,59.1,30.13,East,97,0.0,0.0,94,0.00,,,0.00,WUHU216DAVISVP2,2013-09-05 06:15:00,
2013-09-05 01:20:00,60.7,58.9,30.13,East,97,0.0,0.0,94,0.00,,,0.00,WUHU216DAVISVP2,2013-09-05 06:20:00,
2013-09-05 01:26:00,60.5,58.8,30.14,East,97,0.0,0.0,94,0.00,,,0.00,WUHU216DAVISVP2,2013-09-05 06:26:00,
2013-09-05 01:31:00,60.4,58.7,30.14,East,97,0.0,0.0,94,0.00,,,0.00,WUHU216DAVISVP2,2013-09-05 06:31:00,
2013-09-05 01:36:00,60.4,58.9,30.14,East,97,0.0,0.0,95,0.00,,,0.00,WUHU216DAVISVP2,2013-09-05 06:36:00,
2013-09-05 01:41:00,60.3,58.5,30.14,East,97,0.0,0.0,94,0.00,,,0.00,WUHU216DAVISVP2,2013-09-05 06:41:00,
2013-09-05 01:46:00,60.1,58.3,30.14,East,97,0.0,0.0,94,0.00,,,0.00,WUHU216DAVISVP2,2013-09-05 06:46:00,
2013-09-05 01:51:00,60.0,58.2,30.14,East,97,0.0,0.0,94,0.00,,,0.00,WUHU216DAVISVP2,2013-09-05 06:51:00,
2013-09-05 01:57:00,60.0,58.5,30.14,East,97,0.0,0.0,95,0.00,,,0.00,WUHU216DAVISVP2,2013-09-05 06:57:00,
2013-09-05 02:03:00,60.1,58.3,30.14,East,97,0.0,0.0,94,0.00,,,0.00,WUHU216DAVISVP2,2013-09-05 07:03:00,
2013-09-05 02:09:00,59.9,58.1,30.14,East,97,0.0,0.0,94,0.00,,,0.00,WUHU216DAVISVP2,2013-09-05 07:09:00,
2013-09-05 02:14:00,59.8,58.1,30.14,East,97,0.0,0.0,94,0.00,,,0.00,WUHU216DAVISVP2,2013-09-05 07:14:00,
2013-09-05 02:19:00,59.8,58.4,30.14,East,97,0.0,0.0,95,0.00,,,0.00,WUHU216DAVISVP2,2013-09-05 07:19:00,
2013-09-05 02:25:00,59.7,57.9,30.14,East,97,0.0,0.0,94,0.00,,,0.00,WUHU216DAVISVP2,2013-09-05 07:25:00,
2013-09-05 02:30:00,59.5,57.7,30.14,East,97,0.0,0.0,94,0.00,,,0.00,WUHU216DAVISVP2,2013-09-05 07:30:00,
2013-09-05 02:35:00,59.6,58.1,30.14,East,97,0.0,0.0,95,0.00,,,0.00,WUHU216DAVISVP2,2013-09-05 07:35:00,
2013-09-05 02:40:00,59.7,58.2,30.14,East,97,0.0,0.0,95,0.00,,,0.00,WUHU216DAVISVP2,2013-09-05 07:40:00,
2013-09-05 02:45:00,59.9,58.4,30.14,East,97,0.0,0.0,95,0.00,,,0.00,WUHU216DAVISVP2,2013-09-05 07:45:00,
2013-09-05 02:50:00,59.8,58.0,30.14,East,97,0.0,0.0,94,0.00,,,0.00,WUHU216DAVISVP2,2013-09-05 07:50:00,
2013-09-05 02:55:00,59.6,57.8,30.14,East,97,0.0,0.0,94,0.00,,,0.00,WUHU216DAVISVP2,2013-09-05 07:55:00,
2013-09-05 03:00:00,59.5,57.8,30.13,East,97,0.0,0.0,94,0.00,,,0.00,WUHU216DAVISVP2,2013-09-05 08:00:00,
2013-09-05 03:05:00,59.7,57.9,30.13,East,97,0.0,0.0,94,0.00,,,0.00,WUHU216DAVISVP2,2013-09-05 08:05:00,
2013-09-05 03:11:00,60.0,58.2,30.14,East,97,0.0,0.0,94,0.00,,,0.00,WUHU216DAVISVP2,2013-09-05 08:11:00,
2013-09-05 03:16:00,60.0,58.2,30.14,East,97,0.0,0.0,94,0.00,,,0.00,WUHU216DAVISVP2,2013-09-05 08:16:00,
2013-09-05 03:21:00,59.8,58.0,30.14,East,97,0.0,0.0,94,0.00,,,0.00,WUHU216DAVISVP2,2013-09-05 08:21:00,
2013-09-05 03:26:00,59.6,57.5,30.14,East,97,0.0,0.0,93,0.00,,,0.00,WUHU216DAVISVP2,2013-09-05 08:26:00,
2013-09-05 03:31:00,59.2,57.1,30.13,East,97,0.0,0.0,93,0.00,,,0.00,WUHU216DAVISVP2,2013-09-05 08:31:00,
2013-09-05 03:36:00,59.2,57.4,30.13,East,97,0.0,0.0,94,0.00,,,0.00,WUHU216DAVISVP2,2013-09-05 08:36:00,
2013-09-05 03:41:00,59.0,57.2,30.13,East,97,0.0,0.0,94,0.00,,,0.00,WUHU216DAVISVP2,2013-09-05 08:41:00,
2013-09-05 03:46:00,59.1,57.3,30.13,East,97,0.0,0.0,94,0.00,,,0.00,WUHU216DAVISVP2,2013-09-05 08:46:00,
2013-09-05 03:52:00,59.1,57.3,30.13,East,97,0.0,0.0,94,0.00,,,0.00,WUHU216DAVISVP2,2013-09-05 08:52:00,
2013-09-05 03:57:00,59.4,57.7,30.13,East,97,0.0,0.0,94,0.00,,,0.00,WUHU216DAVISVP2,2013-09-05 08:57:00,
2013-09-05 04:02:00,59.4,57.7,30.13,East,97,0.0,0.0,94,0.00,,,0.00,WUHU216DAVISVP2,2013-09-05 09:02:00,
2013-09-05 04:07:00,59.1,57.4,30.13,East,97,0.0,0.0,94,0.00,,,0.00,WUHU216DAVISVP2,2013-09-05 09:07:00,
2013-09-05 04:12:00,58.9,57.2,30.13,East,97,0.0,0.0,94,0.00,,,0.00,WUHU216DAVISVP2,2013-09-05 09:12:00,
2013-09-05 04:17:00,58.8,57.1,30.13,East,97,0.0,0.0,94,0.00,,,0.00,WUHU216DAVISVP2,2013-09-05 09:17:00,
2013-09-05 04:22:00,58.8,57.0,30.13,East,97,0.0,0.0,94,0.00,,,0.00,WUHU216DAVISVP2,2013-09-05 09:22:00,
2013-09-05 04:27:00,58.9,57.1,30.13,East,97,0.0,0.0,94,0.00,,,0.00,WUHU216DAVISVP2,2013-09-05 09:27:00,
2013-09-05 04:32:00,58.8,57.0,30.13,East,97,0.0,0.0,94,0.00,,,0.00,WUHU216DAVISVP2,2013-09-05 09:32:00,
2013-09-05 04:37:00,58.8,57.0,30.13,East,97,0.0,0.0,94,0.00,,,0.00,WUHU216DAVISVP2,2013-09-05 09:37:00,
2013-09-05 04:42:00,58.4,56.6,30.14,East,97,0.0,0.0,94,0.00,,,0.00,WUHU216DAVISVP2,2013-09-05 09:42:00,
2013-09-05 04:48:00,58.3,56.5,30.14,East,97,0.0,0.0,94,0.00,,,0.00,WUHU216DAVISVP2,2013-09-05 09:48:00,
2013-09-05 04:53:00,58.5,56.7,30.14,East,97,0.0,0.0,94,0.00,,,0.00,WUHU216DAVISVP2,2013-09-05 09:53:00,
2013-09-05 04:58:00,58.8,57.3,30.14,East,97,0.0,0.0,95,0.00,,,0.00,WUHU216DAVISVP2,2013-09-05 09:58:00,
2013-09-05 05:03:00,58.8,57.3,30.14,East,97,0.0,0.0,95,0.00,,,0.00,WUHU216DAVISVP2,2013-09-05 10:03:00,
2013-09-05 05:08:00,58.8,57.3,30.15,East,97,0.0,0.0,95,0.00,,,0.00,WUHU216DAVISVP2,2013-09-05 10:08:00,
2013-09-05 05:13:00,58.6,56.8,30.15,East,97,0.0,0.0,94,0.00,,,0.00,WUHU216DAVISVP2,2013-09-05 10:13:00,
2013-09-05 05:18:00,58.2,56.4,30.15,East,97,0.0,0.0,94,0.00,,,0.00,WUHU216DAVISVP2,2013-09-05 10:18:00,
2013-09-05 05:23:00,58.1,56.3,30.15,East,97,0.0,0.0,94,0.00,,,0.00,WUHU216DAVISVP2,2013-09-05 10:23:00,
2013-09-05 05:28:00,58.0,56.2,30.15,East,97,0.0,0.0,94,0.00,,,0.00,WUHU216DAVISVP2,2013-09-05 10:28:00,
2013-09-05 05:33:00,57.9,56.1,30.15,East,97,0.0,0.0,94,0.00,,,0.00,WUHU216DAVISVP2,2013-09-05 10:33:00,
2013-09-05 05:39:00,57.8,56.0,30.15,East,97,0.0,0.0,94,0.00,,,0.00,WUHU216DAVISVP2,2013-09-05 10:39:00,
2013-09-05 05:44:00,57.8,56.4,30.15,East,97,0.0,0.0,95,0.00,,,0.00,WUHU216DAVISVP2,2013-09-05 10:44:00,
2013-09-05 05:49:00,57.9,56.5,30.15,East,97,0.0,0.0,95,0.00,,,0.00,WUHU216DAVISVP2,2013-09-05 10:49:00,
2013-09-05 05:54:00,57.9,56.4,30.16,East,97,0.0,0.0,95,0.00,,,0.00,WUHU216DAVISVP2,2013-09-05 10:54:00,
2013-09-05 05:59:00,57.7,55.9,30.16,East,97,0.0,0.0,94,0.00,,,0.00,WUHU216DAVISVP2,2013-09-05 10:59:00,
2013-09-05 06:04:00,57.6,55.8,30.16,East,97,0.0,0.0,94,0.00,,,0.00,WUHU216DAVISVP2,2013-09-05 11:04:00,
2013-09-05 06:09:00,57.7,56.2,30.16,East,97,0.0,0.0,95,0.00,,,0.00,WUHU216DAVISVP2,2013-09-05 11:09:00,
2013-09-05 06:14:00,57.6,55.8,30.16,East,97,0.0,0.0,94,0.00,,,0.00,WUHU216DAVISVP2,2013-09-05 11:14:00,
2013-09-05 06:20:00,57.4,55.6,30.17,East,97,0.0,0.0,94,0.00,,,0.00,WUHU216DAVISVP2,2013-09-05 11:20:00,
2013-09-05 06:25:00,57.4,56.0,30.17,East,97,0.0,0.0,95,0.00,,,0.00,WUHU216DAVISVP2,2013-09-05 11:25:00,
2013-09-05 06:30:00,57.6,56.2,30.17,East,97,0.0,0.0,95,0.00,,,0.00,WUHU216DAVISVP2,2013-09-05 11:30:00,
2013-09-05 06:35:00,57.5,56.0,30.17,East,97,0.0,0.0,95,0.00,,,0.00,WUHU216DAVISVP2,2013-09-05 11:35:00,
2013-09-05 06:41:00,57.6,56.2,30.17,East,97,0.0,0.0,95,0.00,,,0.00,WUHU216DAVISVP2,2013-09-05 11:41:00,
2013-09-05 06:46:00,57.8,56.4,30.17,East,97,0.0,0.0,95,0.00,,,0.00,WUHU216DAVISVP2,2013-09-05 11:46:00,
2013-09-05 06:51:00,57.6,56.2,30.17,East,97,0.0,0.0,95,0.00,,,0.00,WUHU216DAVISVP2,2013-09-05 11:51:00,
2013-09-05 06:56:00,57.5,56.1,30.17,East,97,0.0,0.0,95,0.00,,,0.00,WUHU216DAVISVP2,2013-09-05 11:56:00,
2013-09-05 07:02:00,57.6,56.1,30.17,East,97,0.0,0.0,95,0.00,,,0.00,WUHU216DAVISVP2,2013-09-05 12:02:00,
2013-09-05 07:07:00,58.0,56.5,30.17,East,97,0.0,0.0,95,0.00,,,0.00,WUHU216DAVISVP2,2013-09-05 12:07:00,
2013-09-05 07:13:00,58.7,57.2,30.18,East,97,0.0,0.0,95,0.00,,,0.00,WUHU216DAVISVP2,2013-09-05 12:13:00,
2013-09-05 07:18:00,59.5,57.4,30.18,East,97,0.0,0.0,93,0.00,,,0.00,WUHU216DAVISVP2,2013-09-05 12:18:00,
2013-09-05 07:25:00,59.9,57.5,30.17,East,97,0.0,0.0,92,0.00,,,0.00,WUHU216DAVISVP2,2013-09-05 12:25:00,
2013-09-05 07:30:00,60.9,58.2,30.17,East,97,0.0,0.0,91,0.00,,,0.00,WUHU216DAVISVP2,2013-09-05 12:30:00,
2013-09-05 07:37:00,62.4,59.4,30.17,East,97,0.0,0.0,90,0.00,,,0.00,WUHU216DAVISVP2,2013-09-05 12:37:00,
2013-09-05 07:43:00,64.1,60.5,30.18,East,97,0.0,0.0,88,0.00,,,0.00,WUHU216DAVISVP2,2013-09-05 12:43:00,
2013-09-05 07:50:00,65.1,60.8,30.18,East,97,0.0,0.0,86,0.00,,,0.00,WUHU216DAVISVP2,2013-09-05 12:50:00,
2013-09-05 07:56:00,66.4,61.8,30.18,East,97,0.0,0.0,85,0.00,,,0.00,WUHU216DAVISVP2,2013-09-05 12:56:00,
2013-09-05 08:01:00,67.1,61.8,30.18,East,97,0.0,0.0,83,0.00,,,0.00,WUHU216DAVISVP2,2013-09-05 13:01:00,
2013-09-05 08:08:00,67.3,62.3,30.18,East,97,0.0,0.0,84,0.00,,,0.00,WUHU216DAVISVP2,2013-09-05 13:08:00,
2013-09-05 08:14:00,68.2,63.2,30.18,East,97,0.0,0.0,84,0.00,,,0.00,WUHU216DAVISVP2,2013-09-05 13:14:00,
2013-09-05 08:19:00,69.0,63.3,30.18,East,97,0.0,0.0,82,0.00,,,0.00,WUHU216DAVISVP2,2013-09-05 13:19:00,
2013-09-05 08:25:00,69.6,63.9,30.18,East,97,0.0,0.0,82,0.00,,,0.00,WUHU216DAVISVP2,2013-09-05 13:25:00,
2013-09-05 08:31:00,70.5,63.8,30.18,East,97,0.0,0.0,79,0.00,,,0.00,WUHU216DAVISVP2,2013-09-05 13:31:00,
2013-09-05 08:40:00,70.9,63.8,30.18,SSE,155,0.0,0.0,78,0.00,,,0.00,WUHU216DAVISVP2,2013-09-05 13:40:00,
2013-09-05 08:46:00,71.1,64.0,30.18,SW,224,0.0,2.0,78,0.00,,,0.00,WUHU216DAVISVP2,2013-09-05 13:46:00,
2013-09-05 08:52:00,71.4,64.6,30.18,WSW,238,0.0,2.0,79,0.00,,,0.00,WUHU216DAVISVP2,2013-09-05 13:52:00,
2013-09-05 08:57:00,72.1,64.3,30.19,SW,232,0.0,0.0,76,0.00,,,0.00,WUHU216DAVISVP2,2013-09-05 13:57:00,
2013-09-05 09:03:00,72.1,64.3,30.18,SSW,207,1.0,2.0,76,0.00,,,0.00,WUHU216DAVISVP2,2013-09-05 14:03:00,
2013-09-05 09:08:00,72.4,64.9,30.18,SSW,213,0.0,2.0,77,0.00,,,0.00,WUHU216DAVISVP2,2013-09-05 14:08:00,
2013-09-05 09:14:00,72.9,65.0,30.18,SSW,210,0.0,2.0,76,0.00,,,0.00,WUHU216DAVISVP2,2013-09-05 14:14:00,
2013-09-05 09:20:00,73.6,65.3,30.19,West,279,1.0,2.0,75,0.00,,,0.00,WUHU216DAVISVP2,2013-09-05 14:20:00,
2013-09-05 09:25:00,73.7,64.9,30.19,SW,231,0.0,2.0,74,0.00,,,0.00,WUHU216DAVISVP2,2013-09-05 14:25:00,
2013-09-05 09:30:00,74.2,65.0,30.19,WSW,243,0.0,2.0,73,0.00,,,0.00,WUHU216DAVISVP2,2013-09-05 14:30:00,
2013-09-05 09:36:00,74.6,65.0,30.19,West,278,1.0,2.0,72,0.00,,,0.00,WUHU216DAVISVP2,2013-09-05 14:36:00,
2013-09-05 09:42:00,74.6,65.4,30.19,SW,219,1.0,2.0,73,0.00,,,0.00,WUHU216DAVISVP2,2013-09-05 14:42:00,
2013-09-05 09:47:00,75.3,65.8,30.19,WSW,240,1.0,2.0,72,0.00,,,0.00,WUHU216DAVISVP2,2013-09-05 14:47:00,
2013-09-05 09:52:00,75.5,65.6,30.19,NNW,347,0.0,2.0,71,0.00,,,0.00,WUHU216DAVISVP2,2013-09-05 14:52:00,
2013-09-05 09:56:00,76.2,66.3,30.20,West,269,0.0,2.0,71,0.00,,,0.00,WUHU216DAVISVP2,2013-09-05 14:56:00,
2013-09-05 10:02:00,76.6,65.5,30.20,NW,315,2.0,3.0,68,0.00,,,0.00,WUHU216DAVISVP2,2013-09-05 15:02:00,
2013-09-05 10:09:00,76.7,66.0,30.19,NNW,339,2.0,3.0,69,0.00,,,0.00,WUHU216DAVISVP2,2013-09-05 15:09:00,
2013-09-05 10:16:00,77.0,65.4,30.19,NW,310,1.0,3.0,67,0.00,,,0.00,WUHU216DAVISVP2,2013-09-05 15:16:00,
2013-09-05 10:31:00,77.7,62.4,30.19,NW,321,2.0,3.0,59,0.00,,,0.00,WUHU216DAVISVP2,2013-09-05 15:31:00,
2013-09-05 10:37:00,78.1,62.8,30.19,East,84,2.0,4.0,59,0.00,,,0.00,WUHU216DAVISVP2,2013-09-05 15:37:00,
2013-09-05 10:42:00,79.3,65.1,30.19,East,94,0.0,4.0,62,0.00,,,0.00,WUHU216DAVISVP2,2013-09-05 15:42:00,
2013-09-05 10:48:00,79.6,63.2,30.19,ENE,60,5.0,6.0,57,0.00,,,0.00,WUHU216DAVISVP2,2013-09-05 15:48:00,
2013-09-05 10:53:00,78.9,63.1,30.20,NNW,344,4.0,6.0,58,0.00,,,0.00,WUHU216DAVISVP2,2013-09-05 15:53:00,
2013-09-05 10:58:00,79.1,63.8,30.20,North,4,1.0,5.0,59,0.00,,,0.00,WUHU216DAVISVP2,2013-09-05 15:58:00,
2013-09-05 11:03:00,79.2,64.3,30.20,WNW,288,0.0,5.0,60,0.00,,,0.00,WUHU216DAVISVP2,2013-09-05 16:03:00,
2013-09-05 11:08:00,80.2,63.8,30.20,East,82,3.0,5.0,57,0.00,,,0.00,WUHU216DAVISVP2,2013-09-05 16:08:00,
2013-09-05 11:15:00,80.0,63.1,30.20,East,84,2.0,6.0,56,0.00,,,0.00,WUHU216DAVISVP2,2013-09-05 16:15:00,
2013-09-05 11:21:00,80.3,63.9,30.20,ENE,58,4.0,4.0,57,0.00,,,0.00,WUHU216DAVISVP2,2013-09-05 16:21:00,
2013-09-05 11:27:00,80.0,62.9,30.20,NE,54,3.0,7.0,56,0.00,,,0.00,WUHU216DAVISVP2,2013-09-05 16:27:00,
2013-09-05 11:35:00,80.3,63.7,30.20,NW,322,0.0,7.0,57,0.00,,,0.00,WUHU216DAVISVP2,2013-09-05 16:35:00,
2013-09-05 11:40:00,80.1,62.7,30.20,NE,53,0.0,7.0,55,0.00,,,0.00,WUHU216DAVISVP2,2013-09-05 16:40:00,
2013-09-05 11:46:00,80.7,63.8,30.20,ENE,77,4.0,7.0,56,0.00,,,0.00,WUHU216DAVISVP2,2013-09-05 16:46:00,
2013-09-05 11:51:00,81.3,64.3,30.19,NE,53,3.0,4.0,56,0.00,,,0.00,WUHU216DAVISVP2,2013-09-05 16:51:00,
2013-09-05 11:57:00,81.2,63.2,30.19,ENE,59,6.0,8.0,54,0.00,,,0.00,WUHU216DAVISVP2,2013-09-05 16:57:00,
2013-09-05 12:02:00,80.7,63.2,30.19,ENE,66,3.0,8.0,55,0.00,,,0.00,WUHU216DAVISVP2,2013-09-05 17:02:00,
2013-09-05 12:07:00,80.9,63.4,30.19,NNW,344,1.0,8.0,55,0.00,,,0.00,WUHU216DAVISVP2,2013-09-05 17:07:00,
2013-09-05 12:13:00,81.2,64.2,30.19,ENE,62,4.0,8.0,56,0.00,,,0.00,WUHU216DAVISVP2,2013-09-05 17:13:00,
2013-09-05 12:19:00,81.3,63.1,30.19,ESE,106,0.0,8.0,54,0.00,,,0.00,WUHU216DAVISVP2,2013-09-05 17:19:00,
2013-09-05 12:28:00,81.4,63.2,30.19,ENE,71,3.0,10.0,54,0.00,,,0.00,WUHU216DAVISVP2,2013-09-05 17:28:00,
2013-09-05 12:35:00,81.6,62.4,30.19,ENE,64,0.0,9.0,52,0.00,,,0.00,WUHU216DAVISVP2,2013-09-05 17:35:00,
2013-09-05 12:41:00,82.1,64.0,30.19,NE,39,2.0,9.0,54,0.00,,,0.00,WUHU216DAVISVP2,2013-09-05 17:41:00,
2013-09-05 12:47:00,82.5,62.7,30.19,ENE,60,7.0,9.0,51,0.00,,,0.00,WUHU216DAVISVP2,2013-09-05 17:47:00,
2013-09-05 12:52:00,82.1,62.9,30.18,NE,51,9.0,9.0,52,0.00,,,0.00,WUHU216DAVISVP2,2013-09-05 17:52:00,
2013-09-05 12:57:00,81.7,62.5,30.18,ENE,69,7.0,11.0,52,0.00,,,0.00,WUHU216DAVISVP2,2013-09-05 17:57:00,
2013-09-05 13:02:00,81.8,63.2,30.18,East,94,2.0,11.0,53,0.00,,,0.00,WUHU216DAVISVP2,2013-09-05 18:02:00,
2013-09-05 13:07:00,82.5,62.1,30.18,NE,54,7.0,8.0,50,0.00,,,0.00,WUHU216DAVISVP2,2013-09-05 18:07:00,
2013-09-05 13:12:00,82.3,63.1,30.18,ENE,76,7.0,11.0,52,0.00,,,0.00,WUHU216DAVISVP2,2013-09-05 18:12:00,
2013-09-05 13:17:00,82.2,61.1,30.17,NNE,18,3.0,11.0,49,0.00,,,0.00,WUHU216DAVISVP2,2013-09-05 18:17:00,
2013-09-05 13:23:00,82.8,62.8,30.17,NE,50,3.0,9.0,51,0.00,,,0.00,WUHU216DAVISVP2,2013-09-05 18:23:00,
2013-09-05 13:29:00,83.2,63.7,30.17,WSW,255,1.0,8.0,52,0.00,,,0.00,WUHU216DAVISVP2,2013-09-05 18:29:00,
2013-09-05 13:34:00,83.8,63.3,30.17,NE,52,7.0,8.0,50,0.00,,,0.00,WUHU216DAVISVP2,2013-09-05 18:34:00,
2013-09-05 13:44:00,83.0,63.2,30.17,ENE,77,10.0,11.0,51,0.00,,,0.00,WUHU216DAVISVP2,2013-09-05 18:44:00,
2013-09-05 13:52:00,83.6,63.1,30.17,ENE,72,4.0,9.0,50,0.00,,,0.00,WUHU216DAVISVP2,2013-09-05 18:52:00,
2013-09-05 14:02:00,84.6,62.2,30.16,NE,38,1.0,6.0,47,0.00,,,0.00,WUHU216DAVISVP2,2013-09-05 19:02:00,
2013-09-05 14:09:00,85.0,63.2,30.16,East,86,5.0,5.0,48,0.00,,,0.00,WUHU216DAVISVP2,2013-09-05 19:09:00,
2013-09-05 14:17:00,83.7,63.8,30.16,ESE,115,0.0,10.0,51,0.00,,,0.00,WUHU216DAVISVP2,2013-09-05 19:17:00,
2013-09-05 14:23:00,84.7,63.6,30.16,NE,55,3.0,5.0,49,0.00,,,0.00,WUHU216DAVISVP2,2013-09-05 19:23:00,
2013-09-05 14:38:00,84.8,61.8,30.15,ENE,73,4.0,7.0,46,0.00,,,0.00,WUHU216DAVISVP2,2013-09-05 19:38:00,
2013-09-05 14:43:00,85.1,62.1,30.15,ENE,77,3.0,7.0,46,0.00,,,0.00,WUHU216DAVISVP2,2013-09-05 19:43:00,
2013-09-05 14:49:00,84.8,61.8,30.15,ENE,76,3.0,7.0,46,0.00,,,0.00,WUHU216DAVISVP2,2013-09-05 19:49:00,
2013-09-05 14:55:00,84.9,62.5,30.15,East,86,1.0,6.0,47,0.00,,,0.00,WUHU216DAVISVP2,2013-09-05 19:55:00,
2013-09-05 15:01:00,84.8,61.8,30.15,NW,311,2.0,6.0,46,0.00,,,0.00,WUHU216DAVISVP2,2013-09-05 20:01:00,
2013-09-05 15:08:00,85.1,62.7,30.14,ENE,69,5.0,7.0,47,0.00,,,0.00,WUHU216DAVISVP2,2013-09-05 20:08:00,
2013-09-05 15:14:00,85.3,64.7,30.14,NNW,328,2.0,7.0,50,0.00,,,0.00,WUHU216DAVISVP2,2013-09-05 20:14:00,
2013-09-05 15:19:00,85.7,63.2,30.14,ENE,71,3.0,7.0,47,0.00,,,0.00,WUHU216DAVISVP2,2013-09-05 20:19:00,
2013-09-05 15:24:00,85.2,62.7,30.14,ENE,72,4.0,8.0,47,0.00,,,0.00,WUHU216DAVISVP2,2013-09-05 20:24:00,
2013-09-05 15:35:00,84.9,63.1,30.14,ESE,107,3.0,10.0,48,0.00,,,0.00,WUHU216DAVISVP2,2013-09-05 20:35:00,
2013-09-05 15:42:00,85.1,63.3,30.14,WSW,245,0.0,5.0,48,0.00,,,0.00,WUHU216DAVISVP2,2013-09-05 20:42:00,
2013-09-05 15:47:00,85.9,63.4,30.14,WSW,239,0.0,3.0,47,0.00,,,0.00,WUHU216DAVISVP2,2013-09-05 20:47:00,
2013-09-05 15:55:00,86.3,64.4,30.14,ESE,120,0.0,2.0,48,0.00,,,0.00,WUHU216DAVISVP2,2013-09-05 20:55:00,
2013-09-05 16:00:00,86.9,67.3,30.14,ESE,109,0.0,3.0,52,0.00,,,0.00,WUHU216DAVISVP2,2013-09-05 21:00:00,
2013-09-05 16:05:00,86.2,64.9,30.14,ENE,63,3.0,6.0,49,0.00,,,0.00,WUHU216DAVISVP2,2013-09-05 21:05:00,
2013-09-05 16:15:00,86.3,66.2,30.14,WSW,241,0.0,6.0,51,0.00,,,0.00,WUHU216DAVISVP2,2013-09-05 21:15:00,
2013-09-05 16:21:00,86.0,65.2,30.14,East,83,0.0,8.0,50,0.00,,,0.00,WUHU216DAVISVP2,2013-09-05 21:21:00,
2013-09-05 16:26:00,86.7,65.4,30.14,NE,56,0.0,2.0,49,0.00,,,0.00,WUHU216DAVISVP2,2013-09-05 21:26:00,
2013-09-05 16:36:00,87.0,65.7,30.14,ESE,118,1.0,3.0,49,0.00,,,0.00,WUHU216DAVISVP2,2013-09-05 21:36:00,
2013-09-05 16:43:00,85.6,64.4,30.13,East,94,0.0,7.0,49,0.00,,,0.00,WUHU216DAVISVP2,2013-09-05 21:43:00,
2013-09-05 16:48:00,86.0,64.1,30.13,East,96,1.0,7.0,48,0.00,,,0.00,WUHU216DAVISVP2,2013-09-05 21:48:00,
2013-09-05 16:53:00,85.7,63.9,30.13,ESE,105,1.0,3.0,48,0.00,,,0.00,WUHU216DAVISVP2,2013-09-05 21:53:00,
2013-09-05 16:59:00,85.8,64.6,30.13,ENE,65,1.0,3.0,49,0.00,,,0.00,WUHU216DAVISVP2,2013-09-05 21:59:00,
2013-09-05 17:04:00,86.2,64.3,30.13,ESE,110,2.0,6.0,48,0.00,,,0.00,WUHU216DAVISVP2,2013-09-05 22:04:00,
2013-09-05 17:09:00,86.3,64.9,30.13,WSW,250,0.0,6.0,49,0.00,,,0.00,WUHU216DAVISVP2,2013-09-05 22:09:00,
2013-09-05 17:16:00,86.6,64.1,30.13,ESE,110,0.0,3.0,47,0.00,,,0.00,WUHU216DAVISVP2,2013-09-05 22:16:00,
2013-09-05 17:22:00,86.2,63.7,30.13,ESE,114,0.0,4.0,47,0.00,,,0.00,WUHU216DAVISVP2,2013-09-05 22:22:00,
2013-09-05 17:29:00,86.0,64.1,30.13,NE,56,4.0,4.0,48,0.00,,,0.00,WUHU216DAVISVP2,2013-09-05 22:29:00,
2013-09-05 17:34:00,84.5,63.4,30.13,ENE,64,3.0,7.0,49,0.00,,,0.00,WUHU216DAVISVP2,2013-09-05 22:34:00,
2013-09-05 17:39:00,84.6,64.6,30.13,East,99,0.0,4.0,51,0.00,,,0.00,WUHU216DAVISVP2,2013-09-05 22:39:00,
2013-09-05 17:45:00,84.5,64.0,30.13,NE,51,3.0,6.0,50,0.00,,,0.00,WUHU216DAVISVP2,2013-09-05 22:45:00,
2013-09-05 17:50:00,83.6,63.7,30.13,ENE,65,4.0,6.0,51,0.00,,,0.00,WUHU216DAVISVP2,2013-09-05 22:50:00,
2013-09-05 17:56:00,83.3,64.0,30.13,East,91,4.0,4.0,52,0.00,,,0.00,WUHU216DAVISVP2,2013-09-05 22:56:00,
2013-09-05 18:01:00,83.0,63.2,30.12,ENE,60,3.0,5.0,51,0.00,,,0.00,WUHU216DAVISVP2,2013-09-05 23:01:00,
2013-09-05 18:06:00,82.7,62.9,30.12,ENE,65,3.0,5.0,51,0.00,,,0.00,WUHU216DAVISVP2,2013-09-05 23:06:00,
2013-09-05 18:11:00,82.1,62.9,30.12,ENE,63,1.0,4.0,52,0.00,,,0.00,WUHU216DAVISVP2,2013-09-05 23:11:00,
2013-09-05 19:52:00,72.2,64.7,30.13,SSW,210,0.0,0.0,77,0.00,,,0.00,WUHU216DAVISVP2,2013-09-06 00:52:00,
2013-09-05 19:57:00,71.6,64.5,30.13,SSW,210,0.0,0.0,78,0.00,,,0.00,WUHU216DAVISVP2,2013-09-06 00:57:00,
2013-09-05 20:02:00,71.3,64.2,30.13,SSW,210,0.0,0.0,78,0.00,,,0.00,WUHU216DAVISVP2,2013-09-06 01:02:00,
2013-09-05 20:07:00,71.1,64.4,30.13,SSW,210,0.0,0.0,79,0.00,,,0.00,WUHU216DAVISVP2,2013-09-06 01:07:00,
2013-09-05 20:12:00,71.0,64.3,30.13,SSW,210,0.0,0.0,79,0.00,,,0.00,WUHU216DAVISVP2,2013-09-06 01:12:00,
2013-09-05 20:17:00,70.9,64.2,30.13,SSW,210,0.0,0.0,79,0.00,,,0.00,WUHU216DAVISVP2,2013-09-06 01:17:00,
2013-09-05 20:22:00,70.9,64.1,30.13,SSW,210,0.0,0.0,79,0.00,,,0.00,WUHU216DAVISVP2,2013-09-06 01:22:00,
2013-09-05 20:27:00,70.5,63.8,30.14,SSW,210,0.0,0.0,79,0.00,,,0.00,WUHU216DAVISVP2,2013-09-06 01:27:00,
2013-09-05 20:32:00,70.4,64.0,30.14,SSW,210,0.0,0.0,80,0.00,,,0.00,WUHU216DAVISVP2,2013-09-06 01:32:00,
2013-09-05 20:37:00,70.4,64.0,30.14,SSW,210,0.0,0.0,80,0.00,,,0.00,WUHU216DAVISVP2,2013-09-06 01:37:00,
2013-09-05 20:56:00,69.6,63.9,30.14,SSW,210,0.0,0.0,82,0.00,,,0.00,WUHU216DAVISVP2,2013-09-06 01:56:00,
2013-09-05 21:01:00,69.5,63.8,30.14,SSW,210,0.0,0.0,82,0.00,,,0.00,WUHU216DAVISVP2,2013-09-06 02:01:00,
2013-09-05 21:06:00,69.3,63.6,30.14,SSW,210,0.0,0.0,82,0.00,,,0.00,WUHU216DAVISVP2,2013-09-06 02:06:00,
2013-09-05 21:11:00,69.1,63.8,30.14,SSW,210,0.0,0.0,83,0.00,,,0.00,WUHU216DAVISVP2,2013-09-06 02:11:00,
2013-09-05 21:16:00,69.1,63.8,30.14,SSW,210,0.0,0.0,83,0.00,,,0.00,WUHU216DAVISVP2,2013-09-06 02:16:00,
2013-09-05 21:21:00,69.0,63.7,30.14,SSW,210,0.0,0.0,83,0.00,,,0.00,WUHU216DAVISVP2,2013-09-06 02:21:00,
2013-09-05 21:26:00,68.8,63.8,30.15,SSW,210,0.0,0.0,84,0.00,,,0.00,WUHU216DAVISVP2,2013-09-06 02:26:00,
2013-09-05 21:31:00,68.7,64.0,30.15,SSW,210,0.0,0.0,85,0.00,,,0.00,WUHU216DAVISVP2,2013-09-06 02:31:00,
2013-09-05 21:36:00,68.6,63.9,30.15,SSW,210,0.0,0.0,85,0.00,,,0.00,WUHU216DAVISVP2,2013-09-06 02:36:00,
2013-09-05 21:41:00,68.5,63.8,30.15,SSW,210,0.0,0.0,85,0.00,,,0.00,WUHU216DAVISVP2,2013-09-06 02:41:00,
2013-09-05 21:46:00,68.5,64.1,30.15,SSW,210,0.0,0.0,86,0.00,,,0.00,WUHU216DAVISVP2,2013-09-06 02:46:00,
2013-09-05 21:51:00,68.6,63.9,30.15,SSW,210,0.0,0.0,85,0.00,,,0.00,WUHU216DAVISVP2,2013-09-06 02:51:00,
2013-09-05 21:56:00,68.6,63.9,30.15,SSW,210,0.0,0.0,85,0.00,,,0.00,WUHU216DAVISVP2,2013-09-06 02:56:00,
2013-09-05 22:01:00,68.5,63.8,30.15,SSW,210,0.0,0.0,85,0.00,,,0.00,WUHU216DAVISVP2,2013-09-06 03:01:00,
2013-09-05 22:06:00,68.3,63.3,30.15,SSW,210,0.0,0.0,84,0.00,,,0.00,WUHU216DAVISVP2,2013-09-06 03:06:00,
2013-09-05 22:11:00,68.1,63.1,30.15,SSW,210,0.0,0.0,84,0.00,,,0.00,WUHU216DAVISVP2,2013-09-06 03:11:00,
2013-09-05 22:16:00,67.8,62.8,30.15,SSW,210,0.0,0.0,84,0.00,,,0.00,WUHU216DAVISVP2,2013-09-06 03:16:00,
2013-09-05 22:21:00,67.5,62.9,30.15,SSW,210,0.0,0.0,85,0.00,,,0.00,WUHU216DAVISVP2,2013-09-06 03:21:00,
2013-09-05 22:26:00,67.2,62.9,30.15,SSW,210,0.0,0.0,86,0.00,,,0.00,WUHU216DAVISVP2,2013-09-06 03:26:00,
2013-09-05 22:31:00,67.1,63.1,30.15,SSW,210,0.0,0.0,87,0.00,,,0.00,WUHU216DAVISVP2,2013-09-06 03:31:00,
2013-09-05 22:36:00,67.0,63.0,30.16,SSW,210,0.0,0.0,87,0.00,,,0.00,WUHU216DAVISVP2,2013-09-06 03:36:00,
2013-09-05 22:41:00,67.0,63.0,30.15,SSW,210,0.0,0.0,87,0.00,,,0.00,WUHU216DAVISVP2,2013-09-06 03:41:00,
2013-09-05 22:46:00,66.9,63.2,30.16,SSW,210,0.0,0.0,88,0.00,,,0.00,WUHU216DAVISVP2,2013-09-06 03:46:00,
2013-09-05 22:51:00,66.9,63.2,30.16,SSW,210,0.0,0.0,88,0.00,,,0.00,WUHU216DAVISVP2,2013-09-06 03:51:00,
2013-09-05 22:56:00,66.7,63.0,30.16,SSW,210,0.0,0.0,88,0.00,,,0.00,WUHU216DAVISVP2,2013-09-06 03:56:00,
2013-09-05 23:01:00,66.6,62.6,30.16,SSW,210,0.0,0.0,87,0.00,,,0.00,WUHU216DAVISVP2,2013-09-06 04:01:00,
2013-09-05 23:06:00,66.4,62.4,30.16,SSW,210,0.0,0.0,87,0.00,,,0.00,WUHU216DAVISVP2,2013-09-06 04:06:00,
2013-09-05 23:11:00,66.3,62.3,30.16,SSW,210,0.0,0.0,87,0.00,,,0.00,WUHU216DAVISVP2,2013-09-06 04:11:00,
2013-09-05 23:16:00,66.2,62.2,30.16,SSW,210,0.0,0.0,87,0.00,,,0.00,WUHU216DAVISVP2,2013-09-06 04:16:00,
2013-09-05 23:22:00,66.2,62.5,30.16,SSW,210,0.0,0.0,88,0.00,,,0.00,WUHU216DAVISVP2,2013-09-06 04:22:00,
2013-09-05 23:27:00,66.2,62.5,30.16,SSW,210,0.0,0.0,88,0.00,,,0.00,WUHU216DAVISVP2,2013-09-06 04:27:00,
2013-09-05 23:32:00,66.2,62.5,30.16,SSW,210,0.0,0.0,88,0.00,,,0.00,WUHU216DAVISVP2,2013-09-06 04:32:00,
2013-09-05 23:37:00,66.2,62.9,30.16,SSW,210,0.0,0.0,89,0.00,,,0.00,WUHU216DAVISVP2,2013-09-06 04:37:00,
2013-09-05 23:41:00,66.1,62.4,30.16,SSW,210,0.0,0.0,88,0.00,,,0.00,WUHU216DAVISVP2,2013-09-06 04:41:00,
2013-09-05 23:47:00,66.0,62.3,30.16,SSW,210,0.0,0.0,88,0.00,,,0.00,WUHU216DAVISVP2,2013-09-06 04:47:00,
2013-09-05 23:52:00,65.9,62.6,30.16,SSW,210,0.0,0.0,89,0.00,,,0.00,WUHU216DAVISVP2,2013-09-06 04:52:00,
2013-09-05 23:57:00,66.0,62.3,30.16,SSW,210,0.0,0.0,88,0.00,,,0.00,WUHU216DAVISVP2,2013-09-06 04:57:00,